CheckWX is a tool to help pilots better visualize weather data.  It is not intended as a substitute for an official pre-flight weather briefing.

13:39:47 UTC

KMHR TAF
Sacramento Mather Airport
Sacramento, California, USA
KMHR 021727Z 0218/0318 21008KT P6SM SKC FM030600 16006KT P6SM SKC

Jul-2@
18:00 UTC

Jul-2 @ 18:00 UTC

Jul-3@
06:00 UTC

Jul-3 @ 06:00 UTC

TAF KMHR 021727Z 0218/0318 21008KT P6SM SKC

Expired

Wind
  • 210° at 8 KTS
Cloud Levels
  • Clear skies

Jul-3@
06:00 UTC

Jul-3 @ 06:00 UTC

Jul-3@
18:00 UTC

Jul-3 @ 18:00 UTC

FM030600 16006KT P6SM SKC

From

From Standard forecast or significant change

Wind
  • 160° at 6 KTS
Cloud Levels
  • Clear skies